sensor_id;sensor_type;location;lat;lon;timestamp;pressure;altitude;pressure_sealevel;temperature;humidity
71145;BME280;58812;47.698;17.726;2022-09-17T00:02:12;99510.75;;;13.18;85.99
71145;BME280;58812;47.698;17.726;2022-09-17T00:04:37;99509.44;;;13.14;85.58
71145;BME280;58812;47.698;17.726;2022-09-17T00:07:03;99507.66;;;13.29;88.36
71145;BME280;58812;47.698;17.726;2022-09-17T00:09:28;99506.72;;;13.22;86.48
71145;BME280;58812;47.698;17.726;2022-09-17T00:11:54;99511.63;;;13.33;87.16
71145;BME280;58812;47.698;17.726;2022-09-17T00:14:19;99506.53;;;13.24;84.49
71145;BME280;58812;47.698;17.726;2022-09-17T00:16:46;99519.31;;;13.22;86.11
71145;BME280;58812;47.698;17.726;2022-09-17T00:19:16;99516.84;;;13.35;87.50
71145;BME280;58812;47.698;17.726;2022-09-17T00:21:42;99511.25;;;13.22;85.73
71145;BME280;58812;47.698;17.726;2022-09-17T00:24:10;99507.66;;;13.44;87.56
71145;BME280;58812;47.698;17.726;2022-09-17T00:26:36;99498.97;;;13.19;84.86
71145;BME280;58812;47.698;17.726;2022-09-17T00:29:02;99507.94;;;13.34;85.82
71145;BME280;58812;47.698;17.726;2022-09-17T00:31:28;99508.06;;;13.41;87.16
71145;BME280;58812;47.698;17.726;2022-09-17T00:33:54;99509.31;;;13.30;85.05
71145;BME280;58812;47.698;17.726;2022-09-17T00:36:21;99513.53;;;13.62;88.05
71145;BME280;58812;47.698;17.726;2022-09-17T00:38:51;99504.78;;;13.46;86.47
71145;BME280;58812;47.698;17.726;2022-09-17T00:41:18;99516.31;;;13.54;88.01
71145;BME280;58812;47.698;17.726;2022-09-17T00:43:46;99517.25;;;13.61;87.62
71145;BME280;58812;47.698;17.726;2022-09-17T00:46:28;99529.88;;;13.76;90.12
71145;BME280;58812;47.698;17.726;2022-09-17T00:48:58;99533.44;;;13.39;83.47
71145;BME280;58812;47.698;17.726;2022-09-17T00:51:32;99526.19;;;13.24;85.11
71145;BME280;58812;47.698;17.726;2022-09-17T00:53:59;99517.62;;;13.21;86.02
71145;BME280;58812;47.698;17.726;2022-09-17T00:56:28;99523.94;;;13.28;88.00
71145;BME280;58812;47.698;17.726;2022-09-17T00:58:55;99518.56;;;13.28;89.88
71145;BME280;58812;47.698;17.726;2022-09-17T01:01:21;99512.38;;;13.27;85.91
71145;BME280;58812;47.698;17.726;2022-09-17T01:03:47;99521.00;;;13.38;87.29
71145;BME280;58812;47.698;17.726;2022-09-17T01:06:37;99530.00;;;13.30;87.48
71145;BME280;58812;47.698;17.726;2022-09-17T01:09:11;99528.97;;;13.31;86.52
71145;BME280;58812;47.698;17.726;2022-09-17T01:26:05;99518.72;;;13.12;87.44
71145;BME280;58812;47.698;17.726;2022-09-17T01:28:49;99517.97;;;13.18;89.10
71145;BME280;58812;47.698;17.726;2022-09-17T01:39:22;99518.13;;;13.01;85.18
71145;BME280;58812;47.698;17.726;2022-09-17T01:42:23;99527.13;;;12.86;85.23
71145;BME280;58812;47.698;17.726;2022-09-17T01:45:04;99524.94;;;12.89;86.93
71145;BME280;58812;47.698;17.726;2022-09-17T01:47:36;99528.09;;;12.70;84.32
71145;BME280;58812;47.698;17.726;2022-09-17T01:50:07;99521.94;;;12.84;86.11
71145;BME280;58812;47.698;17.726;2022-09-17T01:52:35;99520.69;;;12.72;84.45
71145;BME280;58812;47.698;17.726;2022-09-17T01:55:08;99523.38;;;12.95;85.08
71145;BME280;58812;47.698;17.726;2022-09-17T01:57:39;99510.47;;;12.90;85.99
71145;BME280;58812;47.698;17.726;2022-09-17T02:00:11;99518.13;;;12.78;84.97
71145;BME280;58812;47.698;17.726;2022-09-17T02:05:22;99510.47;;;12.90;87.84
71145;BME280;58812;47.698;17.726;2022-09-17T02:08:07;99509.47;;;12.91;85.80
71145;BME280;58812;47.698;17.726;2022-09-17T02:10:43;99501.16;;;12.78;86.12
71145;BME280;58812;47.698;17.726;2022-09-17T02:13:19;99493.03;;;12.86;88.96
71145;BME280;58812;47.698;17.726;2022-09-17T02:15:53;99496.09;;;12.83;86.48
71145;BME280;58812;47.698;17.726;2022-09-17T02:18:32;99491.97;;;12.95;89.71
71145;BME280;58812;47.698;17.726;2022-09-17T02:26:47;99486.09;;;13.15;91.86
71145;BME280;58812;47.698;17.726;2022-09-17T02:29:37;99484.66;;;13.27;91.05
71145;BME280;58812;47.698;17.726;2022-09-17T02:32:04;99472.25;;;13.03;85.25
71145;BME280;58812;47.698;17.726;2022-09-17T02:34:30;99471.06;;;13.05;88.00
71145;BME280;58812;47.698;17.726;2022-09-17T02:36:56;99478.41;;;13.12;90.95
71145;BME280;58812;47.698;17.726;2022-09-17T02:39:26;99467.28;;;13.15;88.17
71145;BME280;58812;47.698;17.726;2022-09-17T02:50:05;99483.81;;;13.03;86.98
71145;BME280;58812;47.698;17.726;2022-09-17T02:55:31;99478.44;;;12.89;85.21
71145;BME280;58812;47.698;17.726;2022-09-17T02:58:09;99455.69;;;12.99;89.19
71145;BME280;58812;47.698;17.726;2022-09-17T03:00:39;99452.59;;;12.88;86.25
71145;BME280;58812;47.698;17.726;2022-09-17T03:03:25;99448.78;;;12.82;87.24
71145;BME280;58812;47.698;17.726;2022-09-17T03:05:54;99449.06;;;12.87;87.70
71145;BME280;58812;47.698;17.726;2022-09-17T03:08:27;99433.94;;;12.86;87.03
71145;BME280;58812;47.698;17.726;2022-09-17T03:10:53;99430.00;;;12.97;88.78
71145;BME280;58812;47.698;17.726;2022-09-17T03:13:18;99426.91;;;12.85;88.60
71145;BME280;58812;47.698;17.726;2022-09-17T03:15:44;99416.16;;;12.85;87.02
71145;BME280;58812;47.698;17.726;2022-09-17T03:18:09;99425.62;;;12.81;87.27
71145;BME280;58812;47.698;17.726;2022-09-17T03:20:34;99422.47;;;12.92;89.08
71145;BME280;58812;47.698;17.726;2022-09-17T03:23:00;99411.66;;;12.63;85.84
71145;BME280;58812;47.698;17.726;2022-09-17T03:25:25;99418.97;;;12.69;88.30
71145;BME280;58812;47.698;17.726;2022-09-17T03:27:51;99424.66;;;12.74;89.74
71145;BME280;58812;47.698;17.726;2022-09-17T03:30:17;99424.75;;;12.80;90.00
71145;BME280;58812;47.698;17.726;2022-09-17T03:32:42;99437.91;;;12.75;88.87
71145;BME280;58812;47.698;17.726;2022-09-17T03:35:08;99447.84;;;12.75;88.93
71145;BME280;58812;47.698;17.726;2022-09-17T03:37:33;99449.91;;;12.65;89.67
71145;BME280;58812;47.698;17.726;2022-09-17T03:39:59;99448.81;;;12.74;90.65
71145;BME280;58812;47.698;17.726;2022-09-17T03:42:24;99450.69;;;12.73;90.40
71145;BME280;58812;47.698;17.726;2022-09-17T03:44:49;99452.81;;;12.78;90.48
71145;BME280;58812;47.698;17.726;2022-09-17T03:47:15;99445.06;;;12.83;90.06
71145;BME280;58812;47.698;17.726;2022-09-17T03:49:41;99446.06;;;13.20;92.63
71145;BME280;58812;47.698;17.726;2022-09-17T03:52:06;99450.34;;;12.91;90.66
71145;BME280;58812;47.698;17.726;2022-09-17T03:54:32;99451.56;;;12.89;91.07
71145;BME280;58812;47.698;17.726;2022-09-17T03:56:57;99449.72;;;12.89;91.37
71145;BME280;58812;47.698;17.726;2022-09-17T03:59:22;99440.94;;;12.95;91.57
71145;BME280;58812;47.698;17.726;2022-09-17T04:01:48;99431.00;;;12.81;88.75
71145;BME280;58812;47.698;17.726;2022-09-17T04:04:13;99431.97;;;12.80;91.49
71145;BME280;58812;47.698;17.726;2022-09-17T04:06:38;99423.25;;;12.63;89.67
71145;BME280;58812;47.698;17.726;2022-09-17T04:09:04;99416.69;;;12.66;91.45
71145;BME280;58812;47.698;17.726;2022-09-17T04:11:29;99419.25;;;12.59;90.79
71145;BME280;58812;47.698;17.726;2022-09-17T04:13:55;99419.56;;;12.64;91.92
71145;BME280;58812;47.698;17.726;2022-09-17T04:16:20;99419.78;;;12.54;90.76
71145;BME280;58812;47.698;17.726;2022-09-17T04:18:46;99396.25;;;12.56;92.31
71145;BME280;58812;47.698;17.726;2022-09-17T04:21:11;99388.78;;;12.52;92.86
71145;BME280;58812;47.698;17.726;2022-09-17T04:23:37;99377.19;;;12.51;92.80
71145;BME280;58812;47.698;17.726;2022-09-17T04:26:02;99385.25;;;12.51;92.52
71145;BME280;58812;47.698;17.726;2022-09-17T04:28:28;99378.34;;;12.34;91.44
71145;BME280;58812;47.698;17.726;2022-09-17T04:30:54;99380.59;;;12.45;93.02
71145;BME280;58812;47.698;17.726;2022-09-17T04:33:19;99380.00;;;12.58;92.89
71145;BME280;58812;47.698;17.726;2022-09-17T04:35:45;99374.72;;;12.65;92.77
71145;BME280;58812;47.698;17.726;2022-09-17T04:38:10;99391.87;;;12.64;92.10
71145;BME280;58812;47.698;17.726;2022-09-17T04:40:39;99397.50;;;12.69;93.67
71145;BME280;58812;47.698;17.726;2022-09-17T04:43:07;99405.22;;;12.72;92.99
71145;BME280;58812;47.698;17.726;2022-09-17T04:45:33;99408.63;;;12.80;93.03
71145;BME280;58812;47.698;17.726;2022-09-17T04:47:58;99419.16;;;12.67;91.77
71145;BME280;58812;47.698;17.726;2022-09-17T04:50:24;99434.09;;;12.70;92.10
71145;BME280;58812;47.698;17.726;2022-09-17T04:52:49;99441.50;;;12.68;92.74
71145;BME280;58812;47.698;17.726;2022-09-17T04:55:15;99450.97;;;12.55;92.84
71145;BME280;58812;47.698;17.726;2022-09-17T04:57:48;99440.19;;;12.64;93.54
71145;BME280;58812;47.698;17.726;2022-09-17T05:00:14;99439.72;;;12.60;93.08
71145;BME280;58812;47.698;17.726;2022-09-17T05:02:45;99436.72;;;12.78;93.94
71145;BME280;58812;47.698;17.726;2022-09-17T05:05:11;99438.31;;;12.87;94.70
71145;BME280;58812;47.698;17.726;2022-09-17T05:07:38;99440.72;;;12.82;93.50
71145;BME280;58812;47.698;17.726;2022-09-17T05:10:04;99444.50;;;13.10;94.61
71145;BME280;58812;47.698;17.726;2022-09-17T05:12:29;99442.59;;;12.96;93.00
71145;BME280;58812;47.698;17.726;2022-09-17T05:14:55;99433.91;;;13.09;94.56
71145;BME280;58812;47.698;17.726;2022-09-17T05:17:20;99428.81;;;12.99;93.19
71145;BME280;58812;47.698;17.726;2022-09-17T05:19:45;99424.03;;;12.87;92.94
71145;BME280;58812;47.698;17.726;2022-09-17T05:22:11;99415.09;;;12.94;94.29
71145;BME280;58812;47.698;17.726;2022-09-17T05:24:36;99416.84;;;12.87;93.55
71145;BME280;58812;47.698;17.726;2022-09-17T05:27:04;99403.12;;;12.97;94.89
71145;BME280;58812;47.698;17.726;2022-09-17T05:29:30;99400.25;;;12.98;93.61
71145;BME280;58812;47.698;17.726;2022-09-17T05:31:55;99398.19;;;13.23;94.45
71145;BME280;58812;47.698;17.726;2022-09-17T05:34:21;99386.38;;;13.09;93.15
71145;BME280;58812;47.698;17.726;2022-09-17T05:36:46;99392.69;;;13.17;93.09
71145;BME280;58812;47.698;17.726;2022-09-17T05:39:13;99379.06;;;13.18;93.45
71145;BME280;58812;47.698;17.726;2022-09-17T05:41:38;99386.00;;;13.13;93.09
71145;BME280;58812;47.698;17.726;2022-09-17T05:44:04;99403.50;;;13.08;92.22
71145;BME280;58812;47.698;17.726;2022-09-17T05:46:29;99403.69;;;13.07;92.74
71145;BME280;58812;47.698;17.726;2022-09-17T05:48:55;99401.56;;;13.02;92.33
71145;BME280;58812;47.698;17.726;2022-09-17T05:51:21;99417.09;;;12.92;92.29
71145;BME280;58812;47.698;17.726;2022-09-17T05:53:47;99422.84;;;12.89;92.80
71145;BME280;58812;47.698;17.726;2022-09-17T05:56:12;99434.66;;;12.80;93.11
71145;BME280;58812;47.698;17.726;2022-09-17T05:58:38;99444.97;;;12.91;93.47
71145;BME280;58812;47.698;17.726;2022-09-17T06:01:03;99445.78;;;13.15;94.04
71145;BME280;58812;47.698;17.726;2022-09-17T06:03:28;99445.41;;;13.18;92.83
71145;BME280;58812;47.698;17.726;2022-09-17T06:05:56;99443.19;;;13.06;92.30
71145;BME280;58812;47.698;17.726;2022-09-17T06:08:23;99442.88;;;13.24;94.11
71145;BME280;58812;47.698;17.726;2022-09-17T06:10:49;99465.06;;;13.18;91.61
71145;BME280;58812;47.698;17.726;2022-09-17T06:13:18;99472.91;;;13.05;92.20
71145;BME280;58812;47.698;17.726;2022-09-17T06:15:51;99480.50;;;13.24;90.50
71145;BME280;58812;47.698;17.726;2022-09-17T06:18:17;99483.84;;;13.41;92.06
71145;BME280;58812;47.698;17.726;2022-09-17T06:20:54;99493.28;;;13.52;90.26
71145;BME280;58812;47.698;17.726;2022-09-17T06:23:20;99489.78;;;13.51;89.94
71145;BME280;58812;47.698;17.726;2022-09-17T06:25:51;99484.88;;;13.40;87.27
71145;BME280;58812;47.698;17.726;2022-09-17T06:28:17;99481.34;;;13.54;89.89
71145;BME280;58812;47.698;17.726;2022-09-17T06:30:42;99472.44;;;13.39;87.65
71145;BME280;58812;47.698;17.726;2022-09-17T06:33:08;99468.63;;;13.33;87.94
71145;BME280;58812;47.698;17.726;2022-09-17T06:35:33;99474.00;;;13.33;88.17
71145;BME280;58812;47.698;17.726;2022-09-17T06:37:59;99455.28;;;13.02;86.85
71145;BME280;58812;47.698;17.726;2022-09-17T06:40:24;99455.66;;;13.22;88.15
71145;BME280;58812;47.698;17.726;2022-09-17T06:42:56;99449.72;;;12.89;87.04
71145;BME280;58812;47.698;17.726;2022-09-17T06:45:21;99446.09;;;12.97;87.76
71145;BME280;58812;47.698;17.726;2022-09-17T06:47:46;99453.34;;;12.96;87.47
71145;BME280;58812;47.698;17.726;2022-09-17T06:50:12;99465.59;;;12.99;86.11
71145;BME280;58812;47.698;17.726;2022-09-17T06:52:37;99455.41;;;13.09;86.07
71145;BME280;58812;47.698;17.726;2022-09-17T06:55:03;99460.87;;;13.16;86.86
71145;BME280;58812;47.698;17.726;2022-09-17T06:57:29;99470.03;;;13.06;85.26
71145;BME280;58812;47.698;17.726;2022-09-17T06:59:54;99464.16;;;13.26;86.64
71145;BME280;58812;47.698;17.726;2022-09-17T07:02:19;99475.41;;;13.29;86.16
71145;BME280;58812;47.698;17.726;2022-09-17T07:04:45;99476.13;;;13.38;86.01
71145;BME280;58812;47.698;17.726;2022-09-17T07:07:10;99484.31;;;13.45;84.79
71145;BME280;58812;47.698;17.726;2022-09-17T07:09:36;99481.31;;;13.25;83.50
71145;BME280;58812;47.698;17.726;2022-09-17T07:12:06;99474.81;;;13.34;83.66
71145;BME280;58812;47.698;17.726;2022-09-17T07:14:31;99489.72;;;13.59;84.35
71145;BME280;58812;47.698;17.726;2022-09-17T07:16:57;99482.34;;;13.39;82.97
71145;BME280;58812;47.698;17.726;2022-09-17T07:19:22;99476.34;;;13.66;83.99
71145;BME280;58812;47.698;17.726;2022-09-17T07:21:48;99481.53;;;13.38;80.45
71145;BME280;58812;47.698;17.726;2022-09-17T07:24:13;99478.62;;;13.25;80.73
71145;BME280;58812;47.698;17.726;2022-09-17T07:26:38;99475.50;;;13.36;82.16
71145;BME280;58812;47.698;17.726;2022-09-17T07:29:04;99479.88;;;13.14;81.01
71145;BME280;58812;47.698;17.726;2022-09-17T07:31:29;99486.69;;;13.25;81.33
71145;BME280;58812;47.698;17.726;2022-09-17T07:33:55;99482.25;;;13.32;81.30
71145;BME280;58812;47.698;17.726;2022-09-17T07:36:20;99482.03;;;13.19;80.60
71145;BME280;58812;47.698;17.726;2022-09-17T07:38:46;99487.53;;;13.25;80.26
71145;BME280;58812;47.698;17.726;2022-09-17T07:41:14;99485.59;;;13.34;80.23
71145;BME280;58812;47.698;17.726;2022-09-17T07:43:41;99493.50;;;13.35;79.19
71145;BME280;58812;47.698;17.726;2022-09-17T07:46:11;99497.66;;;13.38;79.10
71145;BME280;58812;47.698;17.726;2022-09-17T07:48:37;99495.34;;;13.35;78.28
71145;BME280;58812;47.698;17.726;2022-09-17T07:51:03;99507.66;;;13.44;78.06
71145;BME280;58812;47.698;17.726;2022-09-17T07:53:28;99522.72;;;13.53;78.65
71145;BME280;58812;47.698;17.726;2022-09-17T07:55:58;99519.66;;;13.56;77.64
71145;BME280;58812;47.698;17.726;2022-09-17T07:58:29;99531.72;;;13.60;77.91
71145;BME280;58812;47.698;17.726;2022-09-17T08:01:09;99534.50;;;13.52;78.20
71145;BME280;58812;47.698;17.726;2022-09-17T08:03:36;99541.16;;;13.56;78.41
71145;BME280;58812;47.698;17.726;2022-09-17T08:06:07;99555.62;;;13.55;77.64
71145;BME280;58812;47.698;17.726;2022-09-17T08:08:33;99545.41;;;13.36;78.26
71145;BME280;58812;47.698;17.726;2022-09-17T08:11:08;99546.78;;;13.32;78.10
71145;BME280;58812;47.698;17.726;2022-09-17T08:13:34;99535.19;;;13.31;79.76
71145;BME280;58812;47.698;17.726;2022-09-17T08:16:00;99523.84;;;13.21;77.93
71145;BME280;58812;47.698;17.726;2022-09-17T08:18:27;99508.19;;;13.25;78.54
71145;BME280;58812;47.698;17.726;2022-09-17T08:20:56;99488.94;;;13.36;79.03
71145;BME280;58812;47.698;17.726;2022-09-17T08:23:22;99489.87;;;13.28;77.73
71145;BME280;58812;47.698;17.726;2022-09-17T08:25:55;99489.56;;;13.23;78.16
71145;BME280;58812;47.698;17.726;2022-09-17T08:28:22;99491.34;;;13.31;77.73
71145;BME280;58812;47.698;17.726;2022-09-17T08:30:48;99492.47;;;13.51;77.82
71145;BME280;58812;47.698;17.726;2022-09-17T08:33:14;99516.03;;;13.49;77.25
71145;BME280;58812;47.698;17.726;2022-09-17T08:35:40;99527.72;;;13.56;78.02
71145;BME280;58812;47.698;17.726;2022-09-17T08:38:05;99532.06;;;13.57;78.81
71145;BME280;58812;47.698;17.726;2022-09-17T08:40:38;99534.41;;;13.60;77.18
71145;BME280;58812;47.698;17.726;2022-09-17T08:43:09;99529.47;;;13.49;77.13
71145;BME280;58812;47.698;17.726;2022-09-17T08:45:38;99527.34;;;13.59;75.83
71145;BME280;58812;47.698;17.726;2022-09-17T08:48:04;99537.47;;;13.72;76.00
71145;BME280;58812;47.698;17.726;2022-09-17T08:50:32;99542.28;;;13.47;75.49
71145;BME280;58812;47.698;17.726;2022-09-17T08:56:04;99541.44;;;13.47;76.47
71145;BME280;58812;47.698;17.726;2022-09-17T08:58:50;99539.78;;;13.60;76.53
71145;BME280;58812;47.698;17.726;2022-09-17T09:01:48;99536.63;;;13.72;76.13
71145;BME280;58812;47.698;17.726;2022-09-17T09:04:53;99535.31;;;13.68;75.12
71145;BME280;58812;47.698;17.726;2022-09-17T09:07:17;99536.00;;;13.70;75.73
71145;BME280;58812;47.698;17.726;2022-09-17T09:09:50;99543.41;;;13.68;74.96
71145;BME280;58812;47.698;17.726;2022-09-17T09:12:31;99539.22;;;13.80;74.08
71145;BME280;58812;47.698;17.726;2022-09-17T09:15:05;99538.03;;;13.82;74.53
71145;BME280;58812;47.698;17.726;2022-09-17T09:17:40;99536.19;;;13.83;75.18
71145;BME280;58812;47.698;17.726;2022-09-17T09:20:40;99542.56;;;13.52;75.73
71145;BME280;58812;47.698;17.726;2022-09-17T09:26:15;99545.06;;;13.69;75.98
71145;BME280;58812;47.698;17.726;2022-09-17T09:34:04;99548.88;;;13.59;75.67
71145;BME280;58812;47.698;17.726;2022-09-17T09:36:31;99555.62;;;13.55;76.21
71145;BME280;58812;47.698;17.726;2022-09-17T09:39:01;99556.22;;;13.66;75.94
71145;BME280;58812;47.698;17.726;2022-09-17T09:41:35;99553.63;;;13.72;76.72
71145;BME280;58812;47.698;17.726;2022-09-17T09:44:09;99561.00;;;13.55;75.98
71145;BME280;58812;47.698;17.726;2022-09-17T09:46:46;99558.91;;;13.66;75.19
71145;BME280;58812;47.698;17.726;2022-09-17T09:57:39;99536.87;;;14.21;73.18
71145;BME280;58812;47.698;17.726;2022-09-17T10:00:28;99527.34;;;14.04;72.44
71145;BME280;58812;47.698;17.726;2022-09-17T10:03:03;99530.38;;;14.30;70.99
71145;BME280;58812;47.698;17.726;2022-09-17T10:05:34;99559.06;;;14.89;69.68
71145;BME280;58812;47.698;17.726;2022-09-17T10:08:09;99574.63;;;14.93;69.14
71145;BME280;58812;47.698;17.726;2022-09-17T10:10:37;99566.91;;;14.69;69.30
71145;BME280;58812;47.698;17.726;2022-09-17T10:13:19;99543.16;;;14.58;69.84
71145;BME280;58812;47.698;17.726;2022-09-17T10:15:44;99529.16;;;14.33;69.58
71145;BME280;58812;47.698;17.726;2022-09-17T10:18:21;99510.72;;;14.66;68.90
71145;BME280;58812;47.698;17.726;2022-09-17T10:20:58;99506.28;;;14.58;67.00
71145;BME280;58812;47.698;17.726;2022-09-17T10:23:26;99517.06;;;14.58;64.70
71145;BME280;58812;47.698;17.726;2022-09-17T10:25:52;99528.94;;;14.85;64.14
71145;BME280;58812;47.698;17.726;2022-09-17T10:28:33;99536.56;;;14.60;64.02
71145;BME280;58812;47.698;17.726;2022-09-17T10:31:02;99536.31;;;14.55;64.91
71145;BME280;58812;47.698;17.726;2022-09-17T10:33:32;99540.09;;;14.46;65.49
71145;BME280;58812;47.698;17.726;2022-09-17T10:38:44;99531.03;;;15.33;64.04
71145;BME280;58812;47.698;17.726;2022-09-17T10:41:20;99515.78;;;14.97;63.53
71145;BME280;58812;47.698;17.726;2022-09-17T10:43:47;99525.56;;;14.77;63.26
71145;BME280;58812;47.698;17.726;2022-09-17T10:46:26;99526.63;;;14.61;63.74
71145;BME280;58812;47.698;17.726;2022-09-17T10:49:23;99520.59;;;14.44;64.52
71145;BME280;58812;47.698;17.726;2022-09-17T10:51:44;99511.06;;;14.41;63.91
71145;BME280;58812;47.698;17.726;2022-09-17T10:56:56;99506.72;;;14.26;63.63
71145;BME280;58812;47.698;17.726;2022-09-17T11:10:48;99487.47;;;14.29;61.29
71145;BME280;58812;47.698;17.726;2022-09-17T11:13:30;99488.22;;;14.37;61.38
71145;BME280;58812;47.698;17.726;2022-09-17T11:18:44;99495.94;;;14.26;59.66
71145;BME280;58812;47.698;17.726;2022-09-17T11:30:06;99493.66;;;13.93;59.87
71145;BME280;58812;47.698;17.726;2022-09-17T11:37:42;99498.22;;;14.43;59.53
71145;BME280;58812;47.698;17.726;2022-09-17T11:40:20;99492.91;;;14.14;59.95
71145;BME280;58812;47.698;17.726;2022-09-17T11:42:53;99489.00;;;14.16;59.70
71145;BME280;58812;47.698;17.726;2022-09-17T11:45:27;99477.66;;;14.21;59.28
71145;BME280;58812;47.698;17.726;2022-09-17T11:48:15;99462.28;;;14.15;59.52
71145;BME280;58812;47.698;17.726;2022-09-17T11:50:58;99459.03;;;14.20;60.02
71145;BME280;58812;47.698;17.726;2022-09-17T11:56:20;99493.81;;;14.21;59.75
71145;BME280;58812;47.698;17.726;2022-09-17T12:01:48;99490.13;;;14.07;60.11
71145;BME280;58812;47.698;17.726;2022-09-17T12:04:37;99480.16;;;14.23;60.00
71145;BME280;58812;47.698;17.726;2022-09-17T12:07:40;99460.09;;;13.89;59.66
71145;BME280;58812;47.698;17.726;2022-09-17T12:12:59;99423.28;;;14.11;59.65
71145;BME280;58812;47.698;17.726;2022-09-17T12:15:30;99423.41;;;14.18;59.97
71145;BME280;58812;47.698;17.726;2022-09-17T12:18:06;99424.94;;;13.90;59.86
71145;BME280;58812;47.698;17.726;2022-09-17T12:20:39;99428.78;;;14.18;59.55
71145;BME280;58812;47.698;17.726;2022-09-17T12:23:11;99447.00;;;14.37;58.97
71145;BME280;58812;47.698;17.726;2022-09-17T12:25:56;99462.84;;;14.47;58.56
71145;BME280;58812;47.698;17.726;2022-09-17T12:28:45;99459.28;;;14.25;59.30
71145;BME280;58812;47.698;17.726;2022-09-17T12:31:47;99438.72;;;14.53;58.77
71145;BME280;58812;47.698;17.726;2022-09-17T12:53:01;99386.72;;;14.38;59.28
71145;BME280;58812;47.698;17.726;2022-09-17T12:58:32;99374.69;;;14.12;59.63
71145;BME280;58812;47.698;17.726;2022-09-17T13:01:06;99386.28;;;14.13;59.34
71145;BME280;58812;47.698;17.726;2022-09-17T13:03:39;99373.38;;;14.08;59.49
71145;BME280;58812;47.698;17.726;2022-09-17T13:12:41;99410.00;;;13.88;59.96
71145;BME280;58812;47.698;17.726;2022-09-17T13:14:57;99437.34;;;13.92;59.89
71145;BME280;58812;47.698;17.726;2022-09-17T13:22:48;99424.31;;;14.10;60.52
71145;BME280;58812;47.698;17.726;2022-09-17T13:25:18;99412.97;;;13.78;60.83
71145;BME280;58812;47.698;17.726;2022-09-17T13:27:45;99407.97;;;13.90;60.33
71145;BME280;58812;47.698;17.726;2022-09-17T13:30:15;99406.69;;;13.71;60.61
71145;BME280;58812;47.698;17.726;2022-09-17T13:32:42;99402.44;;;13.62;60.67
71145;BME280;58812;47.698;17.726;2022-09-17T13:37:35;99385.09;;;13.65;60.36
71145;BME280;58812;47.698;17.726;2022-09-17T13:40:02;99391.66;;;13.77;60.48
71145;BME280;58812;47.698;17.726;2022-09-17T13:42:49;99389.88;;;13.69;60.66
71145;BME280;58812;47.698;17.726;2022-09-17T13:45:17;99390.94;;;13.53;60.93
71145;BME280;58812;47.698;17.726;2022-09-17T13:55:36;99410.06;;;13.58;61.81
71145;BME280;58812;47.698;17.726;2022-09-17T13:58:09;99402.72;;;13.52;61.35
71145;BME280;58812;47.698;17.726;2022-09-17T14:01:06;99405.03;;;13.55;61.87
71145;BME280;58812;47.698;17.726;2022-09-17T14:11:36;99377.50;;;13.39;62.57
71145;BME280;58812;47.698;17.726;2022-09-17T14:19:33;99386.59;;;13.52;63.41
71145;BME280;58812;47.698;17.726;2022-09-17T14:24:39;99400.59;;;13.48;63.49
71145;BME280;58812;47.698;17.726;2022-09-17T14:27:40;99395.12;;;13.41;64.01
71145;BME280;58812;47.698;17.726;2022-09-17T14:30:31;99400.50;;;13.41;64.48
71145;BME280;58812;47.698;17.726;2022-09-17T14:35:39;99410.31;;;13.34;64.54
71145;BME280;58812;47.698;17.726;2022-09-17T14:38:16;99405.94;;;13.18;64.70
71145;BME280;58812;47.698;17.726;2022-09-17T14:40:45;99407.44;;;13.21;64.40
71145;BME280;58812;47.698;17.726;2022-09-17T14:43:46;99405.44;;;13.23;64.60
71145;BME280;58812;47.698;17.726;2022-09-17T14:51:44;99394.72;;;13.15;64.34
71145;BME280;58812;47.698;17.726;2022-09-17T14:56:49;99389.25;;;13.08;64.83
71145;BME280;58812;47.698;17.726;2022-09-17T14:59:22;99391.75;;;13.09;64.80
71145;BME280;58812;47.698;17.726;2022-09-17T15:01:50;99387.09;;;13.03;65.10
71145;BME280;58812;47.698;17.726;2022-09-17T15:04:24;99381.19;;;13.08;65.60
71145;BME280;58812;47.698;17.726;2022-09-17T15:06:50;99378.97;;;13.12;66.36
71145;BME280;58812;47.698;17.726;2022-09-17T15:09:25;99374.06;;;13.00;66.39
71145;BME280;58812;47.698;17.726;2022-09-17T15:11:54;99376.00;;;13.06;66.72
71145;BME280;58812;47.698;17.726;2022-09-17T15:14:32;99374.34;;;13.05;67.71
71145;BME280;58812;47.698;17.726;2022-09-17T15:17:00;99378.22;;;13.03;67.83
71145;BME280;58812;47.698;17.726;2022-09-17T15:22:28;99379.72;;;13.05;68.73
71145;BME280;58812;47.698;17.726;2022-09-17T15:25:28;99384.41;;;13.03;68.48
71145;BME280;58812;47.698;17.726;2022-09-17T15:27:56;99377.03;;;13.05;68.23
71145;BME280;58812;47.698;17.726;2022-09-17T15:30:23;99366.72;;;12.94;68.51
71145;BME280;58812;47.698;17.726;2022-09-17T15:32:53;99363.00;;;12.95;69.24
71145;BME280;58812;47.698;17.726;2022-09-17T15:35:22;99366.16;;;12.84;69.40
71145;BME280;58812;47.698;17.726;2022-09-17T15:37:52;99363.13;;;12.87;69.50
71145;BME280;58812;47.698;17.726;2022-09-17T15:40:29;99349.28;;;12.75;69.79
71145;BME280;58812;47.698;17.726;2022-09-17T15:45:27;99352.13;;;12.74;70.05
71145;BME280;58812;47.698;17.726;2022-09-17T15:47:55;99334.44;;;12.65;70.55
71145;BME280;58812;47.698;17.726;2022-09-17T15:50:29;99327.53;;;12.70;70.34
71145;BME280;58812;47.698;17.726;2022-09-17T15:55:38;99327.31;;;12.57;70.67
71145;BME280;58812;47.698;17.726;2022-09-17T15:58:25;99325.81;;;12.54;70.44
71145;BME280;58812;47.698;17.726;2022-09-17T16:08:47;99323.88;;;12.48;72.00
71145;BME280;58812;47.698;17.726;2022-09-17T16:11:21;99317.56;;;12.41;72.46
71145;BME280;58812;47.698;17.726;2022-09-17T16:13:48;99313.84;;;12.42;72.25
71145;BME280;58812;47.698;17.726;2022-09-17T16:16:19;99307.59;;;12.27;72.27
71145;BME280;58812;47.698;17.726;2022-09-17T16:18:45;99308.81;;;12.24;72.62